createdAt,value
2018-08-27T00:02:19.459Z,73.70
2018-08-27T00:04:46.628Z,73.02
2018-08-27T00:07:14.020Z,72.58
2018-08-27T00:09:41.189Z,72.28
2018-08-27T00:12:08.348Z,73.27
2018-08-27T00:14:35.534Z,73.92
2018-08-27T00:17:02.928Z,73.44
2018-08-27T00:19:30.153Z,73.70
2018-08-27T00:21:57.324Z,74.10
2018-08-27T00:24:24.490Z,74.07
2018-08-27T00:26:51.696Z,74.35
2018-08-27T00:29:18.813Z,75.05
2018-08-27T00:31:45.969Z,75.82
2018-08-27T00:34:13.500Z,74.81
2018-08-27T00:36:40.585Z,73.87
2018-08-27T00:39:09.469Z,73.65
2018-08-27T00:41:36.644Z,74.43
2018-08-27T00:44:03.824Z,74.60
2018-08-27T00:46:30.937Z,74.09
2018-08-27T00:48:58.185Z,73.76
2018-08-27T00:51:25.338Z,73.74
2018-08-27T00:53:52.469Z,75.34
2018-08-27T00:56:19.618Z,74.28
2018-08-27T00:58:46.731Z,75.52
2018-08-27T01:01:13.973Z,75.90
2018-08-27T01:03:41.166Z,75.34
2018-08-27T01:06:08.292Z,78.06
2018-08-27T01:08:35.526Z,77.62
2018-08-27T01:11:02.668Z,77.87
2018-08-27T01:13:29.754Z,76.52
2018-08-27T01:15:56.902Z,76.06
2018-08-27T01:18:24.052Z,76.27
2018-08-27T01:20:51.169Z,76.24
2018-08-27T01:23:18.301Z,75.87
2018-08-27T01:25:45.452Z,77.57
2018-08-27T01:28:12.756Z,76.42
2018-08-27T01:30:39.963Z,76.16
2018-08-27T01:33:07.092Z,75.89
2018-08-27T01:35:34.289Z,75.98
2018-08-27T01:38:01.381Z,76.89
2018-08-27T01:40:28.645Z,77.78
2018-08-27T01:42:55.807Z,79.75
2018-08-27T01:45:22.941Z,79.92
2018-08-27T01:47:50.076Z,78.40
2018-08-27T01:50:17.241Z,77.22
2018-08-27T01:52:44.448Z,77.18
2018-08-27T01:55:11.732Z,77.53
2018-08-27T01:57:38.984Z,77.78
2018-08-27T02:00:08.876Z,78.69
2018-08-27T02:02:35.987Z,77.92
2018-08-27T02:05:03.584Z,77.06
2018-08-27T02:07:30.723Z,76.44
2018-08-27T02:09:57.884Z,75.99
2018-08-27T02:12:25.121Z,77.63
2018-08-27T02:14:52.248Z,77.34
2018-08-27T02:17:19.443Z,77.55
2018-08-27T02:19:46.547Z,76.71
2018-08-27T02:22:13.728Z,76.19
2018-08-27T02:24:41.090Z,75.73
2018-08-27T02:27:08.332Z,77.49
2018-08-27T02:29:35.465Z,76.66
2018-08-27T02:32:02.860Z,76.25
2018-08-27T02:34:29.973Z,76.27
2018-08-27T02:36:57.093Z,76.99
2018-08-27T02:39:24.372Z,78.31
2018-08-27T02:41:51.501Z,79.36
2018-08-27T02:44:18.630Z,79.12
2018-08-27T02:46:45.819Z,79.29
2018-08-27T02:49:12.932Z,78.49
2018-08-27T02:51:40.068Z,78.18
2018-08-27T02:54:07.325Z,79.06
2018-08-27T02:56:34.452Z,78.04
2018-08-27T02:59:01.684Z,77.77
2018-08-27T03:01:28.811Z,78.20
2018-08-27T03:03:55.952Z,77.94
2018-08-27T03:06:23.108Z,78.90
2018-08-27T03:08:50.228Z,78.99
2018-08-27T03:11:17.429Z,78.68
2018-08-27T03:13:44.525Z,78.30
2018-08-27T03:16:11.676Z,79.25
2018-08-27T03:18:38.949Z,79.16
2018-08-27T03:21:06.096Z,78.14
2018-08-27T03:23:33.295Z,77.96
2018-08-27T03:26:00.544Z,79.47
2018-08-27T03:28:27.667Z,79.93
2018-08-27T03:30:54.857Z,79.86
2018-08-27T03:33:22.074Z,78.40
2018-08-27T03:35:49.215Z,77.64
2018-08-27T03:38:16.469Z,77.29
2018-08-27T03:40:43.686Z,78.42
2018-08-27T03:43:10.799Z,79.91
2018-08-27T03:45:37.956Z,80.34
2018-08-27T03:48:05.111Z,80.39
2018-08-27T03:50:32.209Z,79.29
2018-08-27T03:52:59.317Z,78.47
2018-08-27T03:55:26.560Z,78.88
2018-08-27T03:57:53.779Z,80.67
2018-08-27T04:00:20.952Z,81.85
2018-08-27T04:02:48.144Z,80.89
2018-08-27T04:05:15.520Z,81.72
2018-08-27T04:07:42.636Z,83.41
2018-08-27T04:10:09.797Z,81.18
2018-08-27T04:12:36.945Z,80.45
2018-08-27T04:15:04.417Z,79.75
2018-08-27T04:17:32.715Z,79.11
2018-08-27T04:20:01.226Z,79.10
2018-08-27T04:22:28.422Z,78.96
2018-08-27T04:24:55.545Z,81.07
2018-08-27T04:27:22.777Z,79.38
2018-08-27T04:29:50.148Z,79.00
2018-08-27T04:32:17.268Z,79.08
2018-08-27T04:34:44.708Z,78.25
2018-08-27T04:37:12.246Z,76.73
2018-08-27T04:39:39.308Z,77.02
2018-08-27T04:42:06.612Z,76.87
2018-08-27T04:44:33.772Z,78.18
2018-08-27T04:47:00.942Z,79.47
2018-08-27T04:49:28.149Z,78.93
2018-08-27T04:51:55.273Z,79.04
2018-08-27T04:54:22.421Z,78.34
2018-08-27T04:56:49.593Z,78.34
2018-08-27T04:59:20.569Z,78.40
2018-08-27T05:01:47.804Z,79.66
2018-08-27T05:04:15.005Z,78.63
2018-08-27T05:06:42.220Z,78.68
2018-08-27T05:09:10.178Z,77.84
2018-08-27T05:11:37.956Z,77.66
2018-08-27T05:14:05.471Z,77.82
2018-08-27T05:16:32.613Z,77.81
2018-08-27T05:18:59.807Z,77.31
2018-08-27T05:21:26.965Z,78.13
2018-08-27T05:23:54.095Z,77.60
2018-08-27T05:26:21.421Z,77.32
2018-08-27T05:28:48.618Z,76.93
2018-08-27T05:31:15.850Z,76.71
2018-08-27T05:33:43.109Z,76.55
2018-08-27T05:36:10.241Z,75.32
2018-08-27T05:38:37.510Z,75.07
2018-08-27T05:41:04.644Z,74.14
2018-08-27T05:43:31.804Z,74.03
2018-08-27T05:45:58.953Z,73.15
2018-08-27T05:48:26.074Z,73.97
2018-08-27T05:50:53.227Z,74.35
2018-08-27T05:53:20.516Z,72.29
2018-08-27T05:55:47.707Z,71.32
2018-08-27T05:58:14.944Z,70.42
2018-08-27T06:00:42.200Z,70.18
2018-08-27T06:03:09.348Z,69.10
2018-08-27T06:05:36.582Z,67.84
2018-08-27T06:08:03.765Z,67.40
2018-08-27T06:10:30.933Z,67.08
2018-08-27T06:12:58.013Z,67.00
2018-08-27T06:15:25.130Z,66.59
2018-08-27T06:17:52.252Z,66.75
2018-08-27T06:20:19.539Z,66.22
2018-08-27T06:22:46.677Z,65.36
2018-08-27T06:25:13.970Z,65.01
2018-08-27T06:27:41.196Z,66.24
2018-08-27T06:30:08.376Z,64.95
2018-08-27T06:32:35.554Z,65.06
2018-08-27T06:35:03.132Z,64.74
2018-08-27T06:37:30.290Z,64.76
2018-08-27T06:39:57.467Z,63.90
2018-08-27T06:42:24.619Z,63.38
2018-08-27T06:44:51.710Z,63.25
2018-08-27T06:47:19.059Z,62.37
2018-08-27T06:49:46.260Z,62.56
2018-08-27T06:52:13.400Z,61.91
2018-08-27T06:54:40.525Z,61.09
2018-08-27T06:57:07.649Z,60.19
2018-08-27T06:59:34.836Z,59.65
2018-08-27T07:02:02.099Z,59.16
2018-08-27T07:04:29.199Z,59.15
2018-08-27T07:06:56.332Z,58.49
2018-08-27T07:09:23.444Z,58.58
2018-08-27T07:11:50.595Z,58.52
2018-08-27T07:14:17.908Z,57.29
2018-08-27T07:16:44.988Z,57.02
2018-08-27T07:19:12.153Z,55.96
2018-08-27T07:21:39.412Z,55.86
2018-08-27T07:24:06.592Z,52.43
2018-08-27T07:26:33.752Z,51.04
2018-08-27T07:29:00.950Z,49.64
2018-08-27T07:31:28.069Z,49.21
2018-08-27T07:33:55.254Z,48.09
2018-08-27T07:36:22.444Z,47.98
2018-08-27T07:38:49.582Z,46.58
2018-08-27T07:41:16.938Z,45.20
2018-08-27T07:43:44.212Z,45.76
2018-08-27T07:46:11.316Z,45.02
2018-08-27T07:48:38.518Z,43.98
2018-08-27T07:51:05.689Z,43.86
2018-08-27T07:53:32.860Z,43.91
2018-08-27T07:56:00.009Z,44.51
2018-08-27T07:58:27.207Z,44.41
2018-08-27T08:00:54.458Z,44.62
2018-08-27T08:03:21.793Z,42.82
2018-08-27T08:05:48.948Z,42.63
2018-08-27T08:08:16.227Z,42.18
2018-08-27T08:10:43.455Z,42.03
2018-08-27T08:13:10.611Z,41.16
2018-08-27T08:15:37.792Z,41.12
2018-08-27T08:18:09.504Z,41.18
2018-08-27T08:20:36.728Z,41.14
2018-08-27T08:23:03.839Z,40.69
2018-08-27T08:25:30.992Z,41.11
2018-08-27T08:27:58.280Z,40.61
2018-08-27T08:30:25.403Z,41.24
2018-08-27T08:32:52.529Z,41.95
2018-08-27T08:35:19.690Z,41.91
2018-08-27T08:37:46.881Z,42.74
2018-08-27T08:40:14.220Z,41.58
2018-08-27T08:42:41.408Z,41.74
2018-08-27T08:45:08.526Z,40.75
2018-08-27T08:47:35.721Z,40.95
2018-08-27T08:50:02.980Z,41.28
2018-08-27T08:52:30.144Z,40.10
2018-08-27T08:54:57.361Z,39.80
2018-08-27T08:57:24.517Z,41.26
2018-08-27T08:59:51.722Z,40.75
2018-08-27T09:02:18.873Z,39.78
2018-08-27T09:04:46.030Z,39.58
2018-08-27T09:07:13.321Z,38.21
2018-08-27T09:09:40.649Z,37.98
2018-08-27T09:12:07.769Z,38.28
2018-08-27T09:14:35.038Z,38.21
2018-08-27T09:17:02.152Z,38.18
2018-08-27T09:19:29.353Z,38.19
2018-08-27T09:21:56.569Z,38.76
2018-08-27T09:24:23.681Z,38.94
2018-08-27T09:26:50.812Z,39.18
2018-08-27T09:29:17.959Z,38.06
2018-08-27T09:31:45.103Z,38.31
2018-08-27T09:34:12.452Z,38.31
2018-08-27T09:36:39.606Z,39.11
2018-08-27T09:39:07.801Z,38.40
2018-08-27T09:41:35.015Z,39.27
2018-08-27T09:44:02.188Z,38.70
2018-08-27T09:46:29.454Z,38.77
2018-08-27T09:48:56.636Z,38.03
2018-08-27T09:51:23.792Z,38.38
2018-08-27T09:53:50.930Z,38.41
2018-08-27T09:56:18.052Z,37.46
2018-08-27T09:58:45.202Z,36.75
2018-08-27T10:01:18.289Z,36.96
2018-08-27T10:03:45.430Z,36.39
2018-08-27T10:06:12.729Z,36.87
2018-08-27T10:08:40.008Z,37.37
2018-08-27T10:11:07.140Z,37.90
2018-08-27T10:13:34.461Z,37.53
2018-08-27T10:16:01.588Z,36.42
2018-08-27T10:18:28.729Z,36.53
2018-08-27T10:20:55.988Z,36.57
2018-08-27T10:23:23.096Z,35.61
2018-08-27T10:25:50.273Z,34.89
2018-08-27T10:28:17.413Z,34.57
2018-08-27T10:30:44.538Z,35.07
2018-08-27T10:33:11.973Z,35.29
2018-08-27T10:35:39.155Z,35.87
2018-08-27T10:38:06.396Z,35.88
2018-08-27T10:40:33.582Z,35.65
2018-08-27T10:43:00.690Z,35.22
2018-08-27T10:45:27.824Z,34.07
2018-08-27T10:47:55.056Z,34.31
2018-08-27T10:50:22.264Z,34.10
2018-08-27T10:52:49.358Z,33.89
2018-08-27T10:55:16.589Z,33.90
2018-08-27T10:57:43.830Z,32.91
2018-08-27T11:00:11.081Z,33.30
2018-08-27T11:02:38.369Z,32.07
2018-08-27T11:05:05.584Z,32.17
2018-08-27T11:07:32.800Z,31.11
2018-08-27T11:09:59.920Z,30.24
2018-08-27T11:12:27.133Z,29.93
2018-08-27T11:14:54.376Z,29.11
2018-08-27T11:17:22.144Z,29.93
2018-08-27T11:19:49.396Z,30.61
2018-08-27T11:22:16.670Z,29.43
2018-08-27T11:24:43.792Z,29.07
2018-08-27T11:27:10.989Z,28.80
2018-08-27T11:29:38.136Z,29.41
2018-08-27T11:32:05.309Z,28.90
2018-08-27T11:34:32.516Z,28.96
2018-08-27T11:36:59.636Z,28.77
2018-08-27T11:39:26.802Z,28.73
2018-08-27T11:41:53.930Z,27.95
2018-08-27T11:44:21.100Z,27.82
2018-08-27T11:46:48.236Z,27.92
2018-08-27T11:49:15.465Z,27.81
2018-08-27T11:51:42.665Z,28.56
2018-08-27T11:54:09.909Z,28.86
2018-08-27T11:59:11.070Z,29.58
2018-08-27T12:01:38.355Z,30.11
2018-08-27T12:04:05.531Z,29.95
2018-08-27T12:06:32.703Z,30.51
2018-08-27T12:08:59.929Z,30.98
2018-08-27T12:11:27.041Z,32.47
2018-08-27T12:13:54.212Z,31.77
2018-08-27T12:16:21.384Z,32.32
2018-08-27T12:18:48.539Z,32.19
2018-08-27T12:21:15.722Z,31.74
2018-08-27T12:26:16.677Z,31.77
2018-08-27T12:28:43.980Z,31.31
2018-08-27T12:31:11.119Z,31.06
2018-08-27T12:33:38.356Z,32.12
2018-08-27T12:36:05.605Z,31.94
2018-08-27T12:38:32.768Z,31.29
2018-08-27T12:41:00.083Z,32.40
2018-08-27T12:43:27.228Z,31.70
2018-08-27T12:45:54.370Z,32.39
2018-08-27T12:48:21.642Z,32.18
2018-08-27T12:50:48.876Z,32.65
2018-08-27T12:53:16.068Z,34.06
2018-08-27T12:55:43.364Z,35.27
2018-08-27T12:58:10.521Z,36.19
2018-08-27T13:00:37.761Z,35.88
2018-08-27T13:03:05.045Z,36.52
2018-08-27T13:05:32.237Z,36.31
2018-08-27T13:07:59.465Z,36.57
2018-08-27T13:10:26.650Z,36.75
2018-08-27T13:12:53.811Z,36.34
2018-08-27T13:15:21.608Z,36.22
2018-08-27T13:17:48.801Z,35.89
2018-08-27T13:20:16.048Z,36.29
2018-08-27T13:22:43.347Z,36.61
2018-08-27T13:25:10.495Z,35.96
2018-08-27T13:27:37.659Z,35.65
2018-08-27T13:30:05.198Z,36.64
2018-08-27T13:32:32.341Z,35.56
2018-08-27T13:34:59.577Z,34.67
2018-08-27T13:37:26.828Z,34.64
2018-08-27T13:39:54.157Z,33.27
2018-08-27T13:42:21.357Z,34.11
2018-08-27T13:44:48.569Z,33.39
2018-08-27T13:47:15.784Z,33.78
2018-08-27T13:49:43.106Z,34.68
2018-08-27T13:52:10.297Z,35.04
2018-08-27T13:54:37.484Z,34.54
2018-08-27T13:57:04.661Z,35.02
2018-08-27T13:59:31.807Z,35.11
2018-08-27T14:01:58.953Z,35.89
2018-08-27T14:04:26.187Z,34.81
2018-08-27T14:06:53.341Z,34.46
2018-08-27T14:09:20.663Z,34.55
2018-08-27T14:11:54.599Z,35.04
2018-08-27T14:14:21.769Z,37.52
2018-08-27T14:16:48.961Z,36.53
2018-08-27T14:19:16.132Z,35.92
2018-08-27T14:21:43.262Z,36.10
2018-08-27T14:24:10.569Z,35.81
2018-08-27T14:26:37.679Z,36.08
2018-08-27T14:29:05.037Z,36.24
2018-08-27T14:31:32.397Z,37.51
2018-08-27T14:33:59.539Z,37.29
2018-08-27T14:36:26.740Z,36.91
2018-08-27T14:38:54.000Z,37.16
2018-08-27T14:41:21.085Z,38.16
2018-08-27T14:43:48.337Z,38.34
2018-08-27T14:46:15.677Z,38.17
2018-08-27T14:48:42.813Z,37.54
2018-08-27T14:51:09.937Z,37.46
2018-08-27T14:53:37.077Z,37.68
2018-08-27T14:56:04.422Z,38.32
2018-08-27T14:58:31.598Z,38.15
2018-08-27T15:01:04.369Z,38.22
2018-08-27T15:03:31.569Z,38.17
2018-08-27T15:05:59.228Z,38.34
2018-08-27T15:08:26.417Z,38.86
2018-08-27T15:10:53.633Z,39.67
2018-08-27T15:13:20.764Z,40.27
2018-08-27T15:15:48.204Z,40.66
2018-08-27T15:18:15.464Z,40.22
2018-08-27T15:20:42.601Z,40.43
2018-08-27T15:23:09.816Z,40.19
2018-08-27T15:25:37.285Z,40.20
2018-08-27T15:28:04.706Z,41.58
2018-08-27T15:30:31.959Z,40.90
2018-08-27T15:32:59.317Z,41.82
2018-08-27T15:35:33.347Z,41.62
2018-08-27T15:38:00.498Z,42.43
2018-08-27T15:40:27.749Z,42.23
2018-08-27T15:42:54.908Z,42.42
2018-08-27T15:45:22.070Z,43.11
2018-08-27T15:47:49.224Z,42.98
2018-08-27T15:50:16.509Z,43.89
2018-08-27T15:52:43.801Z,43.52
2018-08-27T15:55:10.940Z,44.13
2018-08-27T15:57:38.256Z,44.29
2018-08-27T16:00:07.717Z,44.32
2018-08-27T16:02:34.825Z,44.42
2018-08-27T16:05:02.205Z,45.00
2018-08-27T16:07:29.372Z,44.95
2018-08-27T16:09:56.517Z,46.01
2018-08-27T16:12:23.712Z,46.56
2018-08-27T16:14:50.809Z,47.47
2018-08-27T16:17:17.949Z,48.28
2018-08-27T16:19:45.376Z,48.45
2018-08-27T16:22:12.486Z,49.40
2018-08-27T16:24:39.654Z,49.59
2018-08-27T16:27:06.785Z,49.67
2018-08-27T16:29:34.920Z,49.51
2018-08-27T16:32:02.173Z,50.31
2018-08-27T16:34:29.314Z,50.02
2018-08-27T16:36:56.441Z,49.88
2018-08-27T16:39:23.669Z,50.28
2018-08-27T16:41:50.832Z,51.11
2018-08-27T16:44:17.980Z,52.00
2018-08-27T16:46:45.252Z,52.64
2018-08-27T16:49:12.608Z,52.54
2018-08-27T16:51:39.779Z,52.97
2018-08-27T16:54:06.956Z,52.71
2018-08-27T16:56:34.105Z,52.49
2018-08-27T16:59:01.269Z,52.79
2018-08-27T17:01:28.599Z,53.30
2018-08-27T17:03:55.765Z,53.03
2018-08-27T17:06:22.866Z,52.34
2018-08-27T17:08:50.028Z,52.38
2018-08-27T17:11:17.224Z,52.32
2018-08-27T17:13:44.601Z,52.94
2018-08-27T17:16:11.842Z,52.71
2018-08-27T17:18:38.977Z,52.59
2018-08-27T17:21:06.138Z,52.60
2018-08-27T17:23:33.301Z,52.17
2018-08-27T17:26:00.489Z,52.70
2018-08-27T17:28:27.637Z,52.63
2018-08-27T17:30:54.838Z,53.02
2018-08-27T17:33:22.004Z,52.85
2018-08-27T17:35:49.225Z,53.02
2018-08-27T17:38:17.029Z,52.73
2018-08-27T17:40:45.205Z,52.78
2018-08-27T17:43:12.549Z,53.44
2018-08-27T17:45:39.935Z,53.40
2018-08-27T17:48:06.996Z,53.45
2018-08-27T17:50:34.212Z,54.15
2018-08-27T17:53:01.385Z,53.75
2018-08-27T17:55:28.525Z,54.20
2018-08-27T17:57:55.760Z,54.40
2018-08-27T18:00:23.602Z,54.60
2018-08-27T18:02:50.762Z,55.73
2018-08-27T18:05:17.966Z,55.41
2018-08-27T18:07:45.159Z,55.88
2018-08-27T18:10:12.316Z,56.63
2018-08-27T18:12:39.565Z,57.02
2018-08-27T18:15:08.232Z,56.38
2018-08-27T18:17:35.434Z,56.20
2018-08-27T18:20:03.216Z,55.01
2018-08-27T18:22:30.412Z,55.15
2018-08-27T18:24:57.544Z,55.16
2018-08-27T18:27:24.761Z,55.28
2018-08-27T18:29:51.949Z,55.69
2018-08-27T18:32:19.109Z,56.10
2018-08-27T18:34:46.478Z,55.91
2018-08-27T18:37:13.636Z,55.81
2018-08-27T18:39:40.915Z,56.13
2018-08-27T18:42:08.246Z,57.83
2018-08-27T18:44:35.409Z,58.04
2018-08-27T18:47:02.574Z,57.93
2018-08-27T18:49:29.768Z,57.16
2018-08-27T18:51:56.936Z,57.54
2018-08-27T18:54:24.191Z,58.40
2018-08-27T18:56:51.374Z,58.44
2018-08-27T18:59:19.109Z,59.23
2018-08-27T19:01:46.352Z,58.11
2018-08-27T19:04:13.532Z,58.61
2018-08-27T19:06:40.832Z,58.57
2018-08-27T19:09:08.831Z,58.96
2018-08-27T19:11:42.982Z,60.32
2018-08-27T19:14:10.160Z,61.52
2018-08-27T19:16:37.349Z,62.05
2018-08-27T19:19:04.521Z,62.75
2018-08-27T19:21:31.769Z,62.04
2018-08-27T19:23:58.944Z,61.53
2018-08-27T19:26:26.846Z,61.23
2018-08-27T19:28:54.002Z,61.35
2018-08-27T19:31:21.249Z,60.92
2018-08-27T19:33:48.397Z,60.39
2018-08-27T19:36:15.836Z,62.02
2018-08-27T19:38:49.680Z,63.35
2018-08-27T19:41:16.885Z,62.27
2018-08-27T19:43:44.204Z,62.13
2018-08-27T19:46:11.528Z,62.92
2018-08-27T19:48:38.660Z,63.23
2018-08-27T19:51:05.881Z,63.68
2018-08-27T19:53:32.974Z,63.74
2018-08-27T19:56:00.200Z,63.79
2018-08-27T19:58:27.458Z,64.14
2018-08-27T20:00:54.628Z,64.45
2018-08-27T20:03:21.845Z,64.74
2018-08-27T20:05:49.089Z,64.33
2018-08-27T20:08:16.252Z,62.95
2018-08-27T20:10:43.638Z,62.87
2018-08-27T20:13:10.788Z,63.31
2018-08-27T20:15:38.049Z,62.49
2018-08-27T20:18:05.258Z,63.02
2018-08-27T20:20:32.490Z,63.48
2018-08-27T20:22:59.634Z,63.99
2018-08-27T20:25:26.813Z,65.46
2018-08-27T20:27:53.949Z,66.77
2018-08-27T20:30:21.280Z,66.12
2018-08-27T20:32:48.437Z,66.71
2018-08-27T20:35:15.639Z,65.75
2018-08-27T20:37:43.012Z,66.59
2018-08-27T20:40:10.153Z,67.42
2018-08-27T20:42:37.351Z,67.94
2018-08-27T20:45:05.132Z,67.33
2018-08-27T20:47:32.240Z,67.74
2018-08-27T20:49:59.397Z,67.61
2018-08-27T20:52:26.628Z,67.69
2018-08-27T20:54:53.725Z,67.67
2018-08-27T20:57:20.996Z,67.56
2018-08-27T20:59:48.152Z,66.56
2018-08-27T21:02:15.317Z,66.70
2018-08-27T21:04:43.565Z,66.24
2018-08-27T21:07:10.666Z,66.00
2018-08-27T21:09:37.852Z,65.82
2018-08-27T21:12:05.463Z,65.77
2018-08-27T21:14:42.542Z,66.01
2018-08-27T21:17:09.709Z,65.34
2018-08-27T21:19:36.840Z,65.15
2018-08-27T21:22:04.264Z,65.47
2018-08-27T21:24:31.450Z,66.30
2018-08-27T21:26:58.598Z,67.12
2018-08-27T21:29:25.778Z,67.30
2018-08-27T21:31:52.950Z,68.28
2018-08-27T21:34:20.176Z,68.48
2018-08-27T21:36:47.389Z,68.55
2018-08-27T21:39:14.563Z,68.67
2018-08-27T21:41:41.805Z,68.96
2018-08-27T21:44:08.925Z,69.63
2018-08-27T21:46:36.079Z,69.21
2018-08-27T21:49:03.245Z,68.92
2018-08-27T21:51:30.473Z,69.39
2018-08-27T21:53:57.715Z,69.23
2018-08-27T21:56:24.973Z,68.50
2018-08-27T21:58:52.205Z,67.80
2018-08-27T22:01:19.413Z,67.34
2018-08-27T22:03:52.420Z,67.71
2018-08-27T22:06:19.620Z,68.23
2018-08-27T22:08:46.877Z,69.13
2018-08-27T22:11:14.036Z,69.30
2018-08-27T22:13:41.201Z,69.63
2018-08-27T22:16:08.307Z,71.81
2018-08-27T22:18:35.480Z,72.48
2018-08-27T22:21:02.738Z,73.81
2018-08-27T22:23:29.924Z,73.47
2018-08-27T22:25:57.064Z,73.35
2018-08-27T22:28:24.296Z,74.44
2018-08-27T22:30:51.393Z,76.65
2018-08-27T22:33:18.563Z,76.30
2018-08-27T22:35:45.924Z,75.59
2018-08-27T22:38:13.048Z,76.42
2018-08-27T22:40:40.228Z,76.49
2018-08-27T22:43:07.453Z,76.29
2018-08-27T22:45:41.340Z,76.21
2018-08-27T22:48:08.508Z,77.46
2018-08-27T22:50:35.704Z,77.55
2018-08-27T22:53:02.921Z,77.14
2018-08-27T22:55:30.092Z,78.48
2018-08-27T22:57:57.242Z,77.80
2018-08-27T23:00:26.329Z,77.63
2018-08-27T23:02:59.024Z,76.12
2018-08-27T23:05:26.121Z,76.50
2018-08-27T23:08:00.081Z,76.78
2018-08-27T23:10:27.259Z,76.61
2018-08-27T23:12:55.236Z,75.83
2018-08-27T23:15:22.396Z,76.19
2018-08-27T23:17:49.563Z,75.69
2018-08-27T23:20:16.877Z,75.24
2018-08-27T23:22:44.244Z,76.72
2018-08-27T23:25:11.372Z,75.97
2018-08-27T23:27:38.538Z,77.81
2018-08-27T23:30:05.825Z,79.22
2018-08-27T23:32:32.933Z,78.01
2018-08-27T23:35:00.181Z,80.34
2018-08-27T23:37:27.289Z,80.53
2018-08-27T23:39:54.454Z,79.35
2018-08-27T23:42:21.540Z,80.46
2018-08-27T23:44:48.687Z,81.11
2018-08-27T23:47:16.184Z,80.67
2018-08-27T23:49:43.469Z,81.14
2018-08-27T23:52:10.612Z,80.98
2018-08-27T23:54:37.825Z,83.04
2018-08-27T23:57:05.065Z,81.67
2018-08-27T23:59:32.208Z,80.48
